createdAt,value
2018-11-14T00:01:59.234Z,55.76
2018-11-14T00:04:34.233Z,55.30
2018-11-14T00:07:07.038Z,56.72
2018-11-14T00:09:38.258Z,55.94
2018-11-14T00:12:12.950Z,54.91
2018-11-14T00:14:44.987Z,55.32
2018-11-14T00:17:21.109Z,54.94
2018-11-14T00:19:52.828Z,55.47
2018-11-14T00:22:29.228Z,55.38
2018-11-14T00:25:08.586Z,56.20
2018-11-14T00:27:43.437Z,56.30
2018-11-14T00:30:26.825Z,56.02
2018-11-14T00:33:03.595Z,55.65
2018-11-14T00:35:37.709Z,55.44
2018-11-14T00:38:13.766Z,55.38
2018-11-14T00:40:48.814Z,54.88
2018-11-14T00:43:20.203Z,55.09
2018-11-14T00:46:02.308Z,55.45
2018-11-14T00:48:37.370Z,55.46
2018-11-14T00:51:09.397Z,55.94
2018-11-14T00:53:47.713Z,55.85
2018-11-14T00:56:22.682Z,55.63
2018-11-14T00:58:55.511Z,56.31
2018-11-14T01:01:29.927Z,56.25
2018-11-14T01:04:07.096Z,56.90
2018-11-14T01:06:41.923Z,56.41
2018-11-14T01:09:15.117Z,55.86
2018-11-14T01:11:47.121Z,56.35
2018-11-14T01:14:21.534Z,56.47
2018-11-14T01:16:59.658Z,57.13
2018-11-14T01:19:32.931Z,56.92
2018-11-14T01:22:10.494Z,56.89
2018-11-14T01:24:48.193Z,56.95
2018-11-14T01:27:19.929Z,56.99
2018-11-14T01:29:52.636Z,57.07
2018-11-14T01:32:29.599Z,56.52
2018-11-14T01:35:12.188Z,56.81
2018-11-14T01:37:46.346Z,56.82
2018-11-14T01:40:23.496Z,57.63
2018-11-14T01:43:00.084Z,57.45
2018-11-14T01:45:33.296Z,57.71
2018-11-14T01:48:07.332Z,56.77
2018-11-14T01:50:39.700Z,57.47
2018-11-14T01:53:11.771Z,57.15
2018-11-14T01:55:48.926Z,57.26
2018-11-14T01:58:20.860Z,56.80
2018-11-14T02:00:53.743Z,56.35
2018-11-14T02:03:28.718Z,57.02
2018-11-14T02:06:01.385Z,56.85
2018-11-14T02:08:35.207Z,56.82
2018-11-14T02:11:07.839Z,56.77
2018-11-14T02:13:46.461Z,56.96
2018-11-14T02:16:22.946Z,56.63
2018-11-14T02:18:58.137Z,56.80
2018-11-14T02:21:34.139Z,56.59
2018-11-14T02:24:10.778Z,56.54
2018-11-14T02:26:46.525Z,56.17
2018-11-14T02:29:19.399Z,55.30
2018-11-14T02:32:00.551Z,56.17
2018-11-14T02:40:46.738Z,55.38
2018-11-14T02:43:31.110Z,55.32
2018-11-14T02:51:43.939Z,56.13
2018-11-14T02:54:33.100Z,55.07
2018-11-14T02:57:17.271Z,55.61
2018-11-14T02:59:55.630Z,55.80
2018-11-14T03:02:45.661Z,55.42
2018-11-14T03:08:06.560Z,55.52
2018-11-14T03:10:42.371Z,55.10
2018-11-14T03:13:33.145Z,55.52
2018-11-14T03:45:29.323Z,56.48
2018-11-14T03:51:01.775Z,55.57
2018-11-14T03:53:42.424Z,55.54
2018-11-14T03:56:30.846Z,55.66
2018-11-14T03:59:14.326Z,55.60
2018-11-14T04:13:03.657Z,55.98
2018-11-14T04:15:38.413Z,55.35
2018-11-14T04:18:13.051Z,54.90
2018-11-14T04:20:51.176Z,55.46
2018-11-14T04:23:33.181Z,56.39
2018-11-14T04:26:16.582Z,56.05
2018-11-14T04:29:08.810Z,55.63
2018-11-14T04:32:06.928Z,55.54
2018-11-14T04:37:54.638Z,55.04
2018-11-14T04:40:56.578Z,55.45
2018-11-14T04:44:16.370Z,55.75
2018-11-14T04:53:03.944Z,54.69
2018-11-14T05:08:56.663Z,54.61
2018-11-14T05:11:28.245Z,54.18
2018-11-14T05:14:05.130Z,53.88
2018-11-14T05:16:38.286Z,54.19
2018-11-14T05:19:18.635Z,53.96
2018-11-14T05:21:55.930Z,53.78
2018-11-14T05:24:34.508Z,51.91
2018-11-14T05:27:12.491Z,52.87
2018-11-14T05:29:54.634Z,52.54
2018-11-14T05:32:27.264Z,52.03
2018-11-14T05:35:06.515Z,51.21
2018-11-14T05:37:41.636Z,51.56
2018-11-14T05:40:21.341Z,50.73
2018-11-14T05:42:59.541Z,50.76
2018-11-14T05:45:35.998Z,50.57
2018-11-14T05:48:10.014Z,51.69
2018-11-14T05:50:55.643Z,51.18
2018-11-14T05:53:35.752Z,51.59
2018-11-14T05:56:10.022Z,51.28
2018-11-14T05:58:42.832Z,51.65
2018-11-14T06:01:24.826Z,52.31
2018-11-14T06:04:04.341Z,52.27
2018-11-14T06:06:39.069Z,52.62
2018-11-14T06:09:17.857Z,53.71
2018-11-14T06:11:52.382Z,53.98
2018-11-14T06:14:24.846Z,53.65
2018-11-14T06:17:01.899Z,54.67
2018-11-14T06:19:37.983Z,54.58
2018-11-14T06:22:12.443Z,54.86
2018-11-14T06:24:48.887Z,55.65
2018-11-14T06:27:25.544Z,54.92
2018-11-14T06:30:01.989Z,54.56
2018-11-14T06:32:38.658Z,54.29
2018-11-14T06:35:12.717Z,54.05
2018-11-14T06:37:54.949Z,51.94
2018-11-14T06:40:31.785Z,52.36
2018-11-14T06:43:09.847Z,52.67
2018-11-14T06:45:46.158Z,52.01
2018-11-14T06:48:23.235Z,52.10
2018-11-14T06:50:56.608Z,52.41
2018-11-14T06:53:38.526Z,52.98
2018-11-14T06:56:13.898Z,52.89
2018-11-14T06:58:51.518Z,53.40
2018-11-14T07:01:27.376Z,53.77
2018-11-14T07:04:03.736Z,53.71
2018-11-14T07:06:43.859Z,53.81
2018-11-14T07:09:20.128Z,54.37
2018-11-14T07:11:55.301Z,53.38
2018-11-14T07:14:34.729Z,52.92
2018-11-14T07:17:10.599Z,53.52
2018-11-14T07:19:48.693Z,54.34
2018-11-14T07:22:26.342Z,54.33
2018-11-14T07:25:05.778Z,54.94
2018-11-14T07:27:48.552Z,54.76
2018-11-14T07:30:27.040Z,55.27
2018-11-14T07:33:07.814Z,55.24
2018-11-14T07:35:42.106Z,55.17
2018-11-14T07:38:38.293Z,54.93
2018-11-14T07:41:12.780Z,54.29
2018-11-14T07:43:48.598Z,55.01
2018-11-14T07:46:23.370Z,54.33
2018-11-14T07:49:00.675Z,54.39
2018-11-14T07:51:58.652Z,53.68
2018-11-14T07:54:39.311Z,53.07
2018-11-14T07:57:13.538Z,51.84
2018-11-14T07:59:52.449Z,52.18
2018-11-14T08:02:22.211Z,52.06
2018-11-14T08:04:51.970Z,51.27
2018-11-14T08:07:22.128Z,50.29
2018-11-14T08:10:02.243Z,50.80
2018-11-14T08:12:33.050Z,50.05
2018-11-14T08:15:07.703Z,50.50
2018-11-14T08:17:42.092Z,50.09
2018-11-14T08:20:15.937Z,50.42
2018-11-14T08:22:53.402Z,50.04
2018-11-14T08:25:28.723Z,50.29
2018-11-14T08:28:05.934Z,50.79
2018-11-14T08:30:46.577Z,50.20
2018-11-14T08:36:42.227Z,48.70
2018-11-14T08:39:16.927Z,48.52
2018-11-14T08:41:52.861Z,49.03
2018-11-14T08:44:26.463Z,48.27
2018-11-14T08:47:00.010Z,48.65
2018-11-14T08:49:34.909Z,48.24
2018-11-14T08:52:10.321Z,49.03
2018-11-14T08:54:47.645Z,49.26
2018-11-14T08:57:20.659Z,49.89
2018-11-14T08:59:56.935Z,49.63
2018-11-14T09:02:32.170Z,50.07
2018-11-14T09:05:12.838Z,50.86
2018-11-14T09:07:48.241Z,50.75
2018-11-14T09:10:26.925Z,49.65
2018-11-14T09:13:04.639Z,49.07
2018-11-14T09:15:49.565Z,49.07
2018-11-14T09:18:27.297Z,49.09
2018-11-14T09:21:08.759Z,49.70
2018-11-14T09:23:44.292Z,49.27
2018-11-14T09:26:19.598Z,49.06
2018-11-14T09:28:59.151Z,49.63
2018-11-14T09:31:34.191Z,49.35
2018-11-14T09:34:11.334Z,50.78
2018-11-14T09:37:04.326Z,49.87
2018-11-14T09:39:58.539Z,49.32
2018-11-14T09:45:56.452Z,49.92
2018-11-14T09:48:36.082Z,49.02
2018-11-14T09:51:11.145Z,48.83
2018-11-14T09:53:54.797Z,48.93
2018-11-14T09:56:27.890Z,48.59
2018-11-14T09:59:01.843Z,48.68
2018-11-14T10:05:11.675Z,48.50
2018-11-14T10:07:45.472Z,48.58
2018-11-14T10:10:19.419Z,48.54
2018-11-14T10:12:53.667Z,48.51
2018-11-14T10:15:28.968Z,48.70
2018-11-14T10:18:04.330Z,48.29
2018-11-14T10:20:38.956Z,48.93
2018-11-14T10:23:22.294Z,48.75
2018-11-14T10:25:59.031Z,49.13
2018-11-14T10:28:31.787Z,49.24
2018-11-14T10:31:05.389Z,49.04
2018-11-14T10:33:41.655Z,48.92
2018-11-14T10:36:17.242Z,48.35
2018-11-14T10:38:51.345Z,47.97
2018-11-14T10:41:28.341Z,47.64
2018-11-14T10:44:07.286Z,48.33
2018-11-14T10:46:42.333Z,47.95
2018-11-14T10:49:16.626Z,48.16
2018-11-14T10:51:54.901Z,47.91
2018-11-14T10:54:32.375Z,47.31
2018-11-14T10:57:11.956Z,47.81
2018-11-14T10:59:46.175Z,47.82
2018-11-14T11:02:25.240Z,47.57
2018-11-14T11:05:03.995Z,47.38
2018-11-14T11:07:44.230Z,47.03
2018-11-14T11:10:22.267Z,47.86
2018-11-14T11:13:03.488Z,47.47
2018-11-14T11:15:40.255Z,48.15
2018-11-14T11:18:20.320Z,48.65
2018-11-14T11:20:55.492Z,48.20
2018-11-14T11:23:29.733Z,48.58
2018-11-14T11:26:05.932Z,48.46
2018-11-14T11:28:42.958Z,48.16
2018-11-14T11:31:19.879Z,48.89
2018-11-14T11:33:54.773Z,48.98
2018-11-14T11:36:30.373Z,48.82
2018-11-14T11:39:07.172Z,48.58
2018-11-14T11:41:42.274Z,49.00
2018-11-14T11:44:21.444Z,47.91
2018-11-14T11:46:55.371Z,49.32
2018-11-14T11:49:34.656Z,48.74
2018-11-14T11:52:11.806Z,48.21
2018-11-14T11:54:53.613Z,48.02
2018-11-14T11:57:36.269Z,48.60
2018-11-14T12:00:26.658Z,48.06
2018-11-14T12:03:03.703Z,48.88
2018-11-14T12:05:41.456Z,48.92
2018-11-14T12:08:20.146Z,49.53
2018-11-14T12:10:56.935Z,49.45
2018-11-14T12:16:19.293Z,48.66
2018-11-14T12:18:56.324Z,49.06
2018-11-14T12:21:34.961Z,48.68
2018-11-14T12:24:12.754Z,48.96
2018-11-14T12:26:52.305Z,49.15
2018-11-14T12:32:06.546Z,48.70
2018-11-14T12:34:41.777Z,48.55
2018-11-14T12:37:18.138Z,47.88
2018-11-14T12:39:58.702Z,48.47
2018-11-14T12:42:36.489Z,48.46
2018-11-14T12:45:12.998Z,48.19
2018-11-14T12:47:52.060Z,48.58
2018-11-14T12:50:28.711Z,48.32
2018-11-14T12:53:15.979Z,49.40
2018-11-14T12:55:49.627Z,49.07
2018-11-14T12:58:24.354Z,49.29
2018-11-14T13:01:03.530Z,49.08
2018-11-14T13:06:19.646Z,48.74
2018-11-14T13:08:55.285Z,48.98
2018-11-14T13:11:30.674Z,49.30
2018-11-14T13:14:04.093Z,49.17
2018-11-14T13:16:39.396Z,48.85
2018-11-14T13:19:16.944Z,49.61
2018-11-14T13:21:51.949Z,48.31
2018-11-14T13:24:30.302Z,48.71
2018-11-14T13:27:04.258Z,48.67
2018-11-14T13:29:41.529Z,48.58
2018-11-14T13:32:23.591Z,48.79
2018-11-14T13:35:01.182Z,48.66
2018-11-14T13:37:35.887Z,48.90
2018-11-14T13:40:13.508Z,49.48
2018-11-14T13:42:50.438Z,48.58
2018-11-14T13:45:31.356Z,49.20
2018-11-14T13:48:12.270Z,49.41
2018-11-14T13:50:46.444Z,49.72
2018-11-14T13:53:21.803Z,49.36
2018-11-14T13:55:55.547Z,50.00
2018-11-14T13:58:31.357Z,49.80
2018-11-14T14:01:09.883Z,49.30
2018-11-14T14:03:45.610Z,49.61
2018-11-14T14:06:20.218Z,49.57
2018-11-14T14:09:01.376Z,49.49
2018-11-14T14:11:39.231Z,49.35
2018-11-14T14:14:22.091Z,49.90
2018-11-14T14:16:58.417Z,49.72
2018-11-14T14:19:35.628Z,49.46
2018-11-14T14:22:09.612Z,49.32
2018-11-14T14:24:58.560Z,49.39
2018-11-14T14:27:38.560Z,49.56
2018-11-14T14:30:24.528Z,49.24
2018-11-14T14:33:01.255Z,49.35
2018-11-14T14:35:33.905Z,49.35
2018-11-14T14:44:07.702Z,49.96
2018-11-14T14:46:43.371Z,49.55
2018-11-14T14:49:17.429Z,49.28
2018-11-14T14:51:58.028Z,48.92
2018-11-14T14:54:31.503Z,49.48
2018-11-14T14:57:07.348Z,49.73
2018-11-14T14:59:43.431Z,49.19
2018-11-14T15:02:20.692Z,49.21
2018-11-14T15:04:56.112Z,49.00
2018-11-14T15:07:31.671Z,49.64
2018-11-14T15:10:11.809Z,48.79
2018-11-14T15:12:46.374Z,49.02
2018-11-14T15:15:30.326Z,49.63
2018-11-14T15:18:04.309Z,50.19
2018-11-14T15:20:38.721Z,50.41
2018-11-14T15:23:15.108Z,49.79
2018-11-14T15:25:54.861Z,50.03
2018-11-14T15:28:29.789Z,50.07
2018-11-14T15:31:07.085Z,50.46
2018-11-14T15:33:42.664Z,50.43
2018-11-14T15:36:18.486Z,50.86
2018-11-14T15:38:54.831Z,50.54
2018-11-14T15:41:30.358Z,50.87
2018-11-14T15:44:08.998Z,51.84
2018-11-14T15:46:46.819Z,50.85
2018-11-14T15:52:10.515Z,51.38
2018-11-14T15:54:55.402Z,52.33
2018-11-14T15:57:32.393Z,52.71
2018-11-14T16:00:13.955Z,51.98
2018-11-14T16:02:48.280Z,52.22
2018-11-14T16:05:24.758Z,52.58
2018-11-14T16:08:01.128Z,53.69
2018-11-14T16:13:19.372Z,53.07
2018-11-14T16:15:53.836Z,52.80
2018-11-14T16:18:34.089Z,52.83
2018-11-14T16:21:07.944Z,53.70
2018-11-14T16:23:43.877Z,54.06
2018-11-14T16:26:16.003Z,54.12
2018-11-14T16:28:59.511Z,54.29
2018-11-14T16:31:32.542Z,54.90
2018-11-14T16:34:09.553Z,54.66
2018-11-14T16:36:50.617Z,55.12
2018-11-14T16:39:24.697Z,55.15
2018-11-14T16:41:58.339Z,54.69
2018-11-14T16:44:30.141Z,54.60
2018-11-14T16:47:04.649Z,55.04
2018-11-14T16:49:37.926Z,54.06
2018-11-14T16:52:15.743Z,53.14
2018-11-14T16:54:50.849Z,51.48
2018-11-14T16:57:27.690Z,52.16
2018-11-14T17:00:01.745Z,51.78
2018-11-14T17:02:38.238Z,52.20
2018-11-14T17:05:17.921Z,51.95
2018-11-14T17:07:53.080Z,52.02
2018-11-14T17:10:32.870Z,51.29
2018-11-14T17:13:09.572Z,51.39
2018-11-14T17:15:45.268Z,50.62
2018-11-14T17:18:20.197Z,51.23
2018-11-14T17:20:51.534Z,51.56
2018-11-14T17:23:27.214Z,51.62
2018-11-14T17:26:06.965Z,52.15
2018-11-14T17:28:42.973Z,52.16
2018-11-14T17:31:24.555Z,52.52
2018-11-14T17:33:59.530Z,52.45
2018-11-14T17:36:40.446Z,51.76
2018-11-14T17:39:21.395Z,50.63
2018-11-14T17:41:59.135Z,51.50
2018-11-14T17:44:32.015Z,51.42
2018-11-14T17:47:03.869Z,51.54
2018-11-14T17:49:45.291Z,51.73
2018-11-14T17:52:20.739Z,51.48
2018-11-14T17:54:57.094Z,50.99
2018-11-14T17:57:34.322Z,51.72
2018-11-14T18:00:21.596Z,51.28
2018-11-14T18:03:01.819Z,51.13
2018-11-14T18:05:43.259Z,50.98
2018-11-14T18:08:17.538Z,51.28
2018-11-14T18:10:49.462Z,51.06
2018-11-14T18:13:32.728Z,50.83
2018-11-14T18:16:10.363Z,50.61
2018-11-14T18:18:49.721Z,50.13
2018-11-14T18:21:27.416Z,51.02
2018-11-14T18:24:02.305Z,50.69
2018-11-14T18:26:43.875Z,50.65
2018-11-14T18:29:17.504Z,50.72
2018-11-14T18:31:51.977Z,50.96
2018-11-14T18:34:33.342Z,50.58
2018-11-14T18:37:08.385Z,50.17
2018-11-14T18:39:51.552Z,50.20
2018-11-14T18:42:26.218Z,50.84
2018-11-14T18:45:03.230Z,50.61
2018-11-14T18:47:38.569Z,50.50
2018-11-14T18:50:16.476Z,49.90
2018-11-14T18:52:50.430Z,49.87
2018-11-14T18:55:27.328Z,49.38
2018-11-14T18:58:03.572Z,49.52
2018-11-14T19:03:17.622Z,50.54
2018-11-14T19:05:47.171Z,51.11
2018-11-14T19:08:19.842Z,50.77
2018-11-14T19:10:50.038Z,51.31
2018-11-14T19:13:20.147Z,51.41
2018-11-14T19:16:00.519Z,50.76
2018-11-14T19:18:36.647Z,51.13
2018-11-14T19:21:11.358Z,50.86
2018-11-14T19:23:49.126Z,50.77
2018-11-14T19:26:33.786Z,50.80
2018-11-14T19:29:09.893Z,50.45
2018-11-14T19:31:47.227Z,51.17
2018-11-14T19:34:24.289Z,50.81
2018-11-14T19:37:01.992Z,50.54
2018-11-14T19:39:35.410Z,50.36
2018-11-14T19:42:10.882Z,50.27
2018-11-14T19:44:46.012Z,49.64
2018-11-14T19:47:26.299Z,49.41
2018-11-14T19:49:59.698Z,49.17
2018-11-14T19:52:42.289Z,50.14
2018-11-14T19:55:22.585Z,49.96
2018-11-14T19:57:57.901Z,49.27
2018-11-14T20:00:37.434Z,49.57
2018-11-14T20:03:14.500Z,48.52
2018-11-14T20:05:47.039Z,49.15
2018-11-14T20:08:20.381Z,49.37
2018-11-14T20:10:56.413Z,49.29
2018-11-14T20:16:20.388Z,49.79
2018-11-14T20:18:55.856Z,49.32
2018-11-14T20:21:35.077Z,48.54
2018-11-14T20:24:15.938Z,48.38
2018-11-14T20:26:51.567Z,49.29
2018-11-14T20:29:32.445Z,49.52
2018-11-14T20:32:09.617Z,49.74
2018-11-14T20:34:47.351Z,50.25
2018-11-14T20:37:24.323Z,49.02
2018-11-14T20:40:02.423Z,49.79
2018-11-14T20:42:39.908Z,49.51
2018-11-14T20:45:23.483Z,49.33
2018-11-14T20:48:00.078Z,49.71
2018-11-14T20:50:37.297Z,49.63
2018-11-14T20:53:48.397Z,48.66
2018-11-14T20:56:27.283Z,49.32
2018-11-14T20:59:07.075Z,47.86
2018-11-14T21:01:41.898Z,48.76
2018-11-14T21:04:16.417Z,49.93
2018-11-14T21:06:53.000Z,49.64
2018-11-14T21:12:14.098Z,49.45
2018-11-14T21:14:45.380Z,49.25
2018-11-14T21:17:23.515Z,49.84
2018-11-14T21:20:00.142Z,49.86
2018-11-14T21:22:38.187Z,49.22
2018-11-14T21:25:26.230Z,49.54
2018-11-14T21:28:04.091Z,49.89
2018-11-14T21:30:42.943Z,50.04
2018-11-14T21:33:17.526Z,49.68
2018-11-14T21:35:55.088Z,49.11
2018-11-14T21:38:33.319Z,48.78
2018-11-14T21:41:07.901Z,47.99
2018-11-14T21:46:32.295Z,47.54
2018-11-14T21:49:12.735Z,48.01
2018-11-14T21:51:52.024Z,47.71
2018-11-14T21:54:28.436Z,49.04
2018-11-14T21:57:02.051Z,48.65
2018-11-14T22:02:16.173Z,49.14
2018-11-14T22:04:49.911Z,49.79
2018-11-14T22:07:28.951Z,49.93
2018-11-14T22:10:02.638Z,49.76
2018-11-14T22:15:15.107Z,49.89
2018-11-14T22:17:51.386Z,49.96
2018-11-14T22:20:29.995Z,49.49
2018-11-14T22:23:06.320Z,49.60
2018-11-14T22:25:41.950Z,50.31
2018-11-14T22:28:26.795Z,49.69
2018-11-14T22:31:00.270Z,50.16
2018-11-14T22:33:34.895Z,49.62
2018-11-14T22:36:07.994Z,47.85
2018-11-14T22:38:41.374Z,47.17
2018-11-14T22:41:19.821Z,47.44
2018-11-14T22:43:54.469Z,49.01
2018-11-14T22:46:29.100Z,47.70
2018-11-14T22:49:07.266Z,48.30
2018-11-14T22:51:41.398Z,47.65
2018-11-14T22:54:15.763Z,48.58
2018-11-14T22:56:53.710Z,49.56
2018-11-14T22:59:31.255Z,49.21
2018-11-14T23:02:10.380Z,49.00
2018-11-14T23:04:49.302Z,49.41
2018-11-14T23:07:24.350Z,48.62
2018-11-14T23:09:59.555Z,49.67
2018-11-14T23:12:34.423Z,48.55
2018-11-14T23:17:57.196Z,49.51
2018-11-14T23:20:33.050Z,48.85
2018-11-14T23:23:15.081Z,48.72
2018-11-14T23:25:51.919Z,49.01
2018-11-14T23:28:27.874Z,49.36
2018-11-14T23:31:02.224Z,49.63
2018-11-14T23:33:35.913Z,48.43
2018-11-14T23:36:09.861Z,50.04
2018-11-14T23:38:44.990Z,49.89
2018-11-14T23:41:23.093Z,47.78
2018-11-14T23:43:57.295Z,48.59
2018-11-14T23:46:31.217Z,49.69
2018-11-14T23:49:08.098Z,48.72
2018-11-14T23:51:40.230Z,49.06
2018-11-14T23:54:13.563Z,49.82
2018-11-14T23:56:49.615Z,48.96
2018-11-14T23:59:26.376Z,48.76
